Time;durP1;ratioP1;P1;durP2;ratioP2;P2;SDS_P1;SDS_P2;PMS_P1;PMS_P2;Temp;Humidity;BMP_temperature;BMP_pressure;BME280_temperature;BME280_humidity;BME280_pressure;Samples;Min_cycle;Max_cycle;Signal;HPM_P1;HPM_P2
2022/08/03 00:00:46;;;;;;;6.33;4.00;;;;;;;21.04;66.90;98149.25;5033520;28;20672;-71
2022/08/03 00:03:13;;;;;;;5.73;4.40;;;;;;;21.04;66.89;98141.97;5033576;28;20725;-71
2022/08/03 00:05:39;;;;;;;5.93;4.10;;;;;;;21.03;67.44;98148.44;5033160;28;20293;-71
2022/08/03 00:08:06;;;;;;;4.50;4.10;;;;;;;20.93;68.40;98142.34;5033680;28;20213;-71
2022/08/03 00:10:33;;;;;;;7.73;4.30;;;;;;;20.87;68.92;98148.81;5033494;28;20232;-71
2022/08/03 00:12:59;;;;;;;7.13;4.13;;;;;;;20.85;69.15;98141.00;5033302;28;20244;-71
2022/08/03 00:15:25;;;;;;;6.40;4.40;;;;;;;20.73;70.09;98137.88;5033536;28;20296;-71
2022/08/03 00:17:52;;;;;;;4.87;4.13;;;;;;;20.83;70.29;98136.97;5033564;28;20681;-71
2022/08/03 00:20:19;;;;;;;5.37;4.33;;;;;;;20.88;70.18;98142.31;5034074;28;20264;-71
2022/08/03 00:22:46;;;;;;;4.53;4.13;;;;;;;20.78;70.69;98137.81;5033105;28;20209;-71
2022/08/03 00:25:13;;;;;;;5.07;4.57;;;;;;;20.79;70.97;98139.44;5033360;28;20283;-71
2022/08/03 00:27:39;;;;;;;6.00;4.27;;;;;;;20.70;71.60;98137.63;5033435;28;20208;-71
2022/08/03 00:30:07;;;;;;;6.53;4.70;;;;;;;20.64;72.23;98141.44;5033158;28;20743;-71
2022/08/03 00:32:33;;;;;;;7.57;4.03;;;;;;;20.76;71.71;98131.09;5033441;28;20209;-71
2022/08/03 00:35:00;;;;;;;6.20;4.67;;;;;;;20.61;72.69;98132.00;5033393;28;20284;-71
2022/08/03 00:37:27;;;;;;;4.83;4.43;;;;;;;20.58;73.21;98127.16;5033412;28;20210;-71
2022/08/03 00:39:53;;;;;;;5.27;4.17;;;;;;;20.60;73.28;98137.69;5033298;28;20226;-71
2022/08/03 00:42:20;;;;;;;5.67;4.30;;;;;;;20.64;73.05;98126.03;5033033;28;20301;-71
2022/08/03 00:44:46;;;;;;;5.60;4.57;;;;;;;20.63;72.94;98126.31;5033248;28;20249;-71
2022/08/03 00:47:13;;;;;;;6.57;3.90;;;;;;;20.58;73.38;98131.75;5032967;28;20743;-71
2022/08/03 00:49:40;;;;;;;4.70;4.30;;;;;;;20.58;73.56;98137.16;5032846;28;20241;-71
2022/08/03 00:52:10;;;;;;;5.03;4.53;;;;;;;20.57;73.46;98135.56;5033184;28;20293;-71
2022/08/03 00:54:38;;;;;;;5.07;4.17;;;;;;;20.53;73.51;98134.50;5032831;28;20198;-71
2022/08/03 00:57:05;;;;;;;4.83;4.33;;;;;;;20.53;73.83;98129.88;5032824;28;20210;-71
2022/08/03 00:59:33;;;;;;;4.70;4.27;;;;;;;20.60;73.30;98135.78;5033286;28;20228;-71
2022/08/03 01:01:59;;;;;;;5.23;3.87;;;;;;;20.39;74.40;98133.50;5033100;28;20237;-71
2022/08/03 01:04:26;;;;;;;4.83;4.23;;;;;;;20.32;74.41;98138.41;5032813;28;20309;-71
2022/08/03 01:07:07;;;;;;;6.03;4.10;;;;;;;20.32;74.21;98128.41;5033049;28;20249;-71
2022/08/03 01:09:39;;;;;;;6.00;4.03;;;;;;;20.39;73.28;98130.81;5032764;28;20591;-71
2022/08/03 01:12:28;;;;;;;6.30;4.00;;;;;;;20.33;73.50;98124.63;5033076;28;20281;-71
2022/08/03 01:14:58;;;;;;;4.10;3.70;;;;;;;20.30;73.19;98119.78;5032780;28;20709;-71
2022/08/03 01:18:00;;;;;;;4.43;3.57;;;;;;;20.29;72.18;98115.47;5036412;28;20201;-71
2022/08/03 01:20:33;;;;;;;4.30;3.87;;;;;;;20.26;72.68;98118.72;5035439;28;20225;-71
2022/08/03 01:23:21;;;;;;;4.03;3.70;;;;;;;20.30;71.94;98114.38;5036420;28;20273;-71
2022/08/03 01:26:09;;;;;;;4.87;3.63;;;;;;;20.35;71.92;98124.34;5036412;28;20638;-71
2022/08/03 01:28:57;;;;;;;4.00;3.70;;;;;;;20.32;73.01;98125.72;5036173;28;20634;-72
2022/08/03 01:31:40;;;;;;;3.87;3.57;;;;;;;20.33;73.57;98110.31;5036608;28;20293;-71
2022/08/03 01:34:10;;;;;;;4.97;3.60;;;;;;;20.24;74.00;98115.50;5036236;28;20668;-71
2022/08/03 01:36:43;;;;;;;4.40;4.00;;;;;;;20.24;74.92;98114.69;5036492;28;20276;-71
2022/08/03 01:39:11;;;;;;;5.03;4.20;;;;;;;20.23;75.63;98113.91;5036378;28;20657;-71
2022/08/03 01:41:47;;;;;;;5.13;4.40;;;;;;;20.17;76.41;98108.81;5036387;28;20252;-71
2022/08/03 01:44:15;;;;;;;4.47;4.03;;;;;;;20.26;76.20;98109.81;5035937;28;20214;-71
2022/08/03 01:46:43;;;;;;;5.10;4.53;;;;;;;20.21;76.87;98104.47;5036258;28;20293;-71
2022/08/03 01:49:13;;;;;;;5.50;4.67;;;;;;;20.18;77.73;98105.00;5036109;28;20320;-71
2022/08/03 01:51:42;;;;;;;7.37;4.80;;;;;;;20.11;77.99;98105.31;5036143;28;20214;-71
2022/08/03 01:54:11;;;;;;;5.03;4.50;;;;;;;20.16;78.05;98099.88;5036347;28;20293;-71
2022/08/03 01:56:39;;;;;;;5.10;4.30;;;;;;;20.17;78.07;98103.41;5035758;28;20202;-71
2022/08/03 01:59:08;;;;;;;5.63;4.50;;;;;;;20.13;78.00;98099.66;5034720;28;20226;-71
2022/08/03 02:01:37;;;;;;;5.57;5.07;;;;;;;20.11;78.64;98099.91;5035993;28;20220;-71
2022/08/03 02:04:05;;;;;;;5.97;4.93;;;;;;;20.16;78.65;98099.88;5035568;28;20232;-71
2022/08/03 02:06:34;;;;;;;4.90;4.50;;;;;;;20.09;78.97;98095.88;5035929;28;20636;-71
2022/08/03 02:09:02;;;;;;;5.93;5.33;;;;;;;20.10;79.23;98098.31;5035450;28;20309;-71
2022/08/03 02:11:32;;;;;;;5.60;5.07;;;;;;;20.13;78.93;98096.94;5035477;28;20279;-71
2022/08/03 02:14:02;;;;;;;6.10;4.80;;;;;;;20.14;78.65;98095.84;5035373;28;20202;-71
2022/08/03 02:16:32;;;;;;;6.43;5.43;;;;;;;20.11;78.74;98094.50;5034611;28;20233;-72
2022/08/03 02:19:02;;;;;;;5.23;4.73;;;;;;;20.11;78.88;98102.63;5035325;28;20731;-71
2022/08/03 02:21:33;;;;;;;6.17;4.73;;;;;;;20.10;78.99;98092.91;5034185;28;20213;-71
2022/08/03 02:24:00;;;;;;;5.60;5.10;;;;;;;20.08;79.30;98094.25;5036260;28;20222;-71
2022/08/03 02:26:29;;;;;;;4.90;4.60;;;;;;;20.09;79.50;98101.28;5035782;28;20209;-71
2022/08/03 02:28:58;;;;;;;5.93;4.80;;;;;;;19.98;79.93;98099.69;5034364;28;20240;-71
2022/08/03 02:31:29;;;;;;;5.50;4.73;;;;;;;19.98;80.30;98095.09;5035165;28;20681;-71
2022/08/03 02:34:03;;;;;;;6.83;5.03;;;;;;;19.96;80.42;98101.84;5035099;28;20240;-71
2022/08/03 02:36:33;;;;;;;5.43;4.93;;;;;;;19.93;80.62;98105.91;5035266;28;20189;-71
2022/08/03 02:39:02;;;;;;;6.10;4.77;;;;;;;19.91;80.28;98097.31;5017774;28;20590;-71
2022/08/03 02:41:49;;;;;;;5.73;5.00;;;;;;;19.84;81.01;98098.69;5035254;28;20209;-71
2022/08/03 02:44:18;;;;;;;5.83;5.00;;;;;;;19.89;80.03;98091.34;5034822;28;20213;-71
2022/08/03 02:46:48;;;;;;;5.33;4.80;;;;;;;19.82;80.38;98101.66;5034831;28;20741;-71
2022/08/03 02:49:17;;;;;;;6.53;5.63;;;;;;;19.84;80.79;98093.28;5034747;28;20687;-71
2022/08/03 02:51:45;;;;;;;5.10;4.63;;;;;;;19.82;80.93;98095.44;5033939;28;20214;-71
2022/08/03 02:54:15;;;;;;;5.23;4.73;;;;;;;19.77;81.10;98088.19;5034850;28;20682;-71
2022/08/03 02:56:43;;;;;;;5.10;4.60;;;;;;;19.79;80.82;98096.81;5034955;28;20210;-71
2022/08/03 02:59:11;;;;;;;4.57;4.17;;;;;;;19.80;80.46;98087.63;5034815;28;20226;-71
2022/08/03 03:01:39;;;;;;;4.60;4.30;;;;;;;19.77;80.28;98092.78;5035344;28;20208;-71
2022/08/03 03:04:07;;;;;;;4.70;4.30;;;;;;;19.77;80.29;98093.59;5034643;28;20229;-71
2022/08/03 03:06:35;;;;;;;4.23;3.83;;;;;;;19.80;79.99;98094.94;5034756;28;20242;-71
2022/08/03 03:09:02;;;;;;;5.17;3.90;;;;;;;19.78;79.98;98093.28;5033400;28;20357;-71
2022/08/03 03:11:29;;;;;;;4.27;3.90;;;;;;;19.84;79.58;98086.00;5033466;28;20297;-71
2022/08/03 03:13:57;;;;;;;5.33;4.17;;;;;;;19.77;79.78;98091.69;5034975;28;20635;-71
2022/08/03 03:16:26;;;;;;;4.30;3.90;;;;;;;19.77;79.74;98091.69;5034505;28;20244;-71
2022/08/03 03:18:54;;;;;;;4.17;3.67;;;;;;;19.71;80.42;98083.09;5033117;28;20313;-71
2022/08/03 03:21:22;;;;;;;5.53;3.80;;;;;;;19.71;80.86;98089.28;5034021;28;20702;-68
2022/08/03 03:23:49;;;;;;;5.40;3.93;;;;;;;19.73;80.52;98079.81;5033149;28;20293;-68
2022/08/03 03:26:16;;;;;;;4.20;3.80;;;;;;;19.68;80.98;98079.84;5033958;28;20575;-69
2022/08/03 03:28:42;;;;;;;4.03;3.73;;;;;;;19.58;81.44;98090.69;5033920;28;20251;-71
2022/08/03 03:31:09;;;;;;;4.30;3.83;;;;;;;19.57;81.71;98090.16;5034196;28;20552;-71
2022/08/03 03:33:37;;;;;;;4.50;3.73;;;;;;;19.55;81.96;98085.03;5034012;28;20205;-71
2022/08/03 03:36:05;;;;;;;4.40;4.00;;;;;;;19.54;81.83;98084.22;5033638;28;20641;-71
2022/08/03 03:38:32;;;;;;;4.47;4.07;;;;;;;19.48;82.00;98085.34;5033260;28;20301;-71
2022/08/03 03:40:59;;;;;;;6.27;4.30;;;;;;;19.49;81.78;98088.81;5033578;28;20305;-71
2022/08/03 03:43:26;;;;;;;5.13;3.67;;;;;;;19.52;82.03;98085.59;5033678;28;20298;-71
2022/08/03 03:45:53;;;;;;;4.30;4.00;;;;;;;19.39;82.48;98086.97;5033844;28;20572;-70
2022/08/03 03:48:20;;;;;;;5.63;4.10;;;;;;;19.32;82.98;98083.75;5033869;28;20205;-71
2022/08/03 03:50:49;;;;;;;7.70;4.00;;;;;;;19.25;83.46;98080.56;5033925;28;20238;-70
2022/08/03 03:53:15;;;;;;;9.43;4.20;;;;;;;19.17;84.13;98077.56;5033819;28;20249;-71
2022/08/03 03:55:41;;;;;;;5.77;4.40;;;;;;;19.16;84.18;98082.16;5033711;28;20289;-71
2022/08/03 03:58:08;;;;;;;5.47;3.90;;;;;;;19.19;83.81;98076.19;5033279;28;20683;-70
2022/08/03 04:00:34;;;;;;;5.87;4.23;;;;;;;19.16;84.16;98079.47;5033350;28;20593;-69
2022/08/03 04:03:01;;;;;;;4.40;4.00;;;;;;;19.12;84.57;98080.25;5033100;28;20635;-70
2022/08/03 04:11:07;;;;;;;6.13;4.57;;;;;;;19.02;85.73;98080.28;5033390;28;20177;-70
2022/08/03 04:13:38;;;;;;;4.57;4.10;;;;;;;19.08;85.42;98093.47;5033420;28;20210;-69
2022/08/03 04:16:07;;;;;;;4.50;4.10;;;;;;;19.17;84.71;98089.16;5033439;28;20281;-69
2022/08/03 04:18:35;;;;;;;5.20;4.37;;;;;;;19.21;84.07;98090.22;5033737;28;20296;-69
2022/08/03 04:21:04;;;;;;;6.27;4.37;;;;;;;19.25;83.84;98091.34;5032913;28;20673;-70
2022/08/03 04:23:33;;;;;;;5.07;4.23;;;;;;;19.25;83.85;98093.22;5033414;28;20206;-70
2022/08/03 04:26:02;;;;;;;6.33;4.33;;;;;;;19.32;83.19;98097.22;5033283;28;20218;-69
2022/08/03 04:28:32;;;;;;;8.23;4.20;;;;;;;19.38;83.01;98098.03;5031641;28;20309;-70
2022/08/03 04:31:04;;;;;;;4.27;3.93;;;;;;;19.35;83.49;98094.00;5033340;28;20190;-69
2022/08/03 04:33:33;;;;;;;5.77;3.97;;;;;;;19.41;83.44;98092.09;5033744;28;20206;-70
2022/08/03 04:36:04;;;;;;;5.10;4.30;;;;;;;19.41;83.48;98097.50;5032985;28;20306;-69
2022/08/03 04:38:36;;;;;;;6.23;4.40;;;;;;;19.37;83.03;98096.44;5032589;28;20807;-69
2022/08/03 04:41:03;;;;;;;5.93;4.30;;;;;;;19.38;83.08;98101.56;5032492;28;20609;-70
2022/08/03 04:43:32;;;;;;;6.33;4.57;;;;;;;19.38;83.30;98101.56;5031178;28;20212;-69
2022/08/03 04:45:59;;;;;;;6.03;4.40;;;;;;;19.38;83.56;98106.94;5032049;28;20217;-69
2022/08/03 04:48:26;;;;;;;5.57;4.27;;;;;;;19.45;82.72;98103.97;5032810;28;20288;-70
2022/08/03 04:50:54;;;;;;;6.67;5.07;;;;;;;19.50;82.52;98115.50;5034188;28;20574;-69
2022/08/03 04:53:21;;;;;;;5.97;4.67;;;;;;;19.57;82.30;98120.63;5037166;28;20233;-70
2022/08/03 04:55:47;;;;;;;6.70;4.57;;;;;;;19.63;81.83;98119.53;5036955;28;20284;-69
2022/08/03 04:58:14;;;;;;;8.67;4.90;;;;;;;19.68;81.20;98114.91;5037675;28;20285;-70
2022/08/03 05:00:41;;;;;;;8.33;4.73;;;;;;;19.75;80.78;98119.22;5036651;28;20226;-69
2022/08/03 05:03:07;;;;;;;5.10;4.60;;;;;;;19.84;80.40;98115.66;5036285;28;20217;-69
2022/08/03 05:05:34;;;;;;;4.87;4.37;;;;;;;20.04;78.94;98120.16;5036614;28;20681;-69
2022/08/03 05:08:00;;;;;;;4.83;4.33;;;;;;;20.33;76.71;98118.41;5036256;28;20288;-69
2022/08/03 05:10:27;;;;;;;5.13;4.20;;;;;;;20.63;75.19;98120.91;5036657;28;20257;-70
2022/08/03 05:12:53;;;;;;;7.90;4.13;;;;;;;20.85;74.28;98118.59;5035809;28;20572;-70
2022/08/03 05:15:20;;;;;;;4.80;4.00;;;;;;;21.05;73.53;98115.72;5035959;28;20229;-69
2022/08/03 05:17:46;;;;;;;4.20;3.80;;;;;;;21.12;72.82;98118.91;5035796;28;20250;-69
2022/08/03 05:20:13;;;;;;;6.83;4.10;;;;;;;21.12;73.13;98124.31;5035868;28;20237;-69
2022/08/03 05:22:39;;;;;;;5.37;4.23;;;;;;;21.03;72.83;98118.72;5036146;28;20293;-70
2022/08/03 05:25:06;;;;;;;4.60;4.20;;;;;;;20.95;73.67;98127.44;5036092;28;20317;-70
2022/08/03 05:27:32;;;;;;;5.80;4.30;;;;;;;20.94;73.36;98120.41;5036283;28;20285;-69
2022/08/03 05:29:58;;;;;;;5.40;4.73;;;;;;;20.83;73.64;98126.16;5035798;28;20544;-69
2022/08/03 05:32:25;;;;;;;4.97;4.57;;;;;;;20.75;73.68;98118.69;5035588;28;20205;-69
2022/08/03 05:34:51;;;;;;;5.00;4.50;;;;;;;20.98;72.97;98123.38;5035957;28;20206;-69
2022/08/03 05:37:18;;;;;;;4.73;4.30;;;;;;;21.00;72.90;98129.28;5035317;28;20297;-70
2022/08/03 05:39:44;;;;;;;5.37;4.87;;;;;;;20.85;73.03;98127.47;5036431;28;20316;-70
2022/08/03 05:42:10;;;;;;;5.73;4.57;;;;;;;21.07;72.76;98127.09;5035634;28;20740;-70
2022/08/03 05:44:38;;;;;;;9.90;4.90;;;;;;;21.27;72.53;98130.41;5035707;28;20205;-72
2022/08/03 05:47:05;;;;;;;5.07;4.57;;;;;;;21.18;72.78;98126.69;5035393;28;20209;-70
2022/08/03 05:49:31;;;;;;;5.83;5.00;;;;;;;21.15;73.51;98138.06;5035534;28;20320;-72
2022/08/03 05:51:58;;;;;;;5.03;4.53;;;;;;;21.33;72.82;98136.53;5035084;28;20205;-71
2022/08/03 05:54:24;;;;;;;6.37;4.80;;;;;;;21.44;72.23;98127.25;5035698;28;20292;-72
2022/08/03 05:56:51;;;;;;;6.80;4.50;;;;;;;21.50;72.22;98123.41;5035577;28;20341;-72
2022/08/03 05:59:18;;;;;;;6.53;4.70;;;;;;;21.46;71.68;98123.16;5035340;28;20312;-72
2022/08/03 06:01:44;;;;;;;6.73;5.10;;;;;;;21.66;70.62;98122.94;5042643;28;20205;-70
2022/08/03 06:04:11;;;;;;;5.93;5.00;;;;;;;21.70;70.72;98123.22;5055818;28;20599;-70
2022/08/03 06:06:38;;;;;;;4.73;4.23;;;;;;;21.71;70.57;98127.53;5055438;28;20229;-68
2022/08/03 06:09:04;;;;;;;7.73;4.67;;;;;;;21.89;69.50;98132.19;5054994;28;20746;-68
2022/08/03 06:11:31;;;;;;;10.00;4.70;;;;;;;21.87;69.51;98124.34;5055124;28;20292;-67
2022/08/03 06:13:58;;;;;;;7.37;5.40;;;;;;;21.90;69.11;98128.38;5055189;28;20205;-67
2022/08/03 06:16:24;;;;;;;5.50;4.87;;;;;;;21.89;68.99;98132.19;5055054;28;20236;-68
2022/08/03 06:18:50;;;;;;;7.23;5.10;;;;;;;22.08;68.29;98131.13;5054535;28;20734;-68
2022/08/03 06:21:17;;;;;;;7.97;5.13;;;;;;;22.02;68.58;98136.91;5054797;28;20295;-68
2022/08/03 06:23:46;;;;;;;7.60;5.10;;;;;;;22.16;68.03;98127.75;5054586;28;20595;-68
2022/08/03 06:26:13;;;;;;;8.13;5.60;;;;;;;22.23;67.85;98135.53;5054536;28;20225;-68
2022/08/03 06:28:39;;;;;;;6.57;4.40;;;;;;;22.37;67.08;98133.69;5054468;28;20228;-68
2022/08/03 06:31:06;;;;;;;8.50;5.40;;;;;;;22.37;67.12;98120.97;5054431;28;20648;-68
2022/08/03 06:33:32;;;;;;;5.10;4.27;;;;;;;22.62;66.54;98125.25;5055272;28;20205;-68
2022/08/03 06:35:59;;;;;;;7.53;4.93;;;;;;;22.58;66.54;98132.34;5054787;28;20289;-68
2022/08/03 06:38:25;;;;;;;6.50;5.80;;;;;;;22.64;65.79;98126.56;5054401;28;20546;-68
2022/08/03 06:40:51;;;;;;;9.37;4.53;;;;;;;22.57;66.23;98128.03;5054554;28;20205;-68
2022/08/03 06:43:18;;;;;;;8.97;4.97;;;;;;;22.71;65.88;98120.78;5054246;28;20668;-69
2022/08/03 06:45:45;;;;;;;5.50;4.70;;;;;;;22.65;65.84;98124.66;5054627;28;20307;-68
2022/08/03 06:48:12;;;;;;;4.73;3.97;;;;;;;22.84;65.05;98128.16;5054667;28;20275;-68
2022/08/03 06:50:41;;;;;;;6.47;5.00;;;;;;;22.87;65.05;98128.34;5054173;28;20281;-68
2022/08/03 06:53:08;;;;;;;6.93;5.70;;;;;;;22.80;65.35;98127.91;5054736;28;20213;-68
2022/08/03 06:55:35;;;;;;;10.40;8.17;;;;;;;22.93;65.16;98129.88;5054246;28;20662;-68
2022/08/03 06:58:01;;;;;;;7.87;5.97;;;;;;;23.03;65.04;98132.44;5054458;28;20304;-68
2022/08/03 07:00:28;;;;;;;7.60;4.33;;;;;;;23.17;64.11;98135.19;5054281;28;20312;-68
2022/08/03 07:02:54;;;;;;;7.27;5.00;;;;;;;23.25;63.80;98139.97;5054450;28;20201;-68
2022/08/03 07:05:21;;;;;;;8.43;5.78;;;;;;;23.20;64.03;98142.75;5054189;28;20319;-69
2022/08/03 07:07:48;;;;;;;11.23;6.32;;;;;;;23.42;63.25;98132.06;5053972;28;20296;-69
2022/08/03 07:10:14;;;;;;;10.55;6.15;;;;;;;23.54;63.25;98140.50;5053683;28;20736;-68
2022/08/03 07:12:41;;;;;;;7.10;4.22;;;;;;;23.65;63.07;98144.66;5053985;28;20201;-68
2022/08/03 07:15:08;;;;;;;5.40;4.18;;;;;;;23.79;62.81;98134.59;5053822;28;20288;-69
2022/08/03 07:17:36;;;;;;;6.03;4.53;;;;;;;23.79;62.83;98140.03;5053865;28;20248;-68
2022/08/03 07:20:06;;;;;;;8.40;5.22;;;;;;;23.77;61.79;98140.31;5054882;28;20233;-68
2022/08/03 07:22:32;;;;;;;7.93;5.35;;;;;;;23.75;61.93;98134.38;5054215;28;20233;-68
2022/08/03 07:24:59;;;;;;;5.00;3.88;;;;;;;23.91;61.55;98130.28;5053668;28;20687;-68
2022/08/03 07:27:27;;;;;;;4.70;4.30;;;;;;;23.97;61.42;98131.78;5053931;28;20296;-68
2022/08/03 07:29:54;;;;;;;6.80;5.72;;;;;;;24.08;60.79;98138.66;5053633;28;20328;-68
2022/08/03 07:32:20;;;;;;;10.48;9.48;;;;;;;24.23;60.66;98143.75;5053837;28;20330;-68
2022/08/03 07:34:50;;;;;;;17.60;15.00;;;;;;;24.25;60.51;98135.28;5053912;28;20227;-68
2022/08/03 07:37:16;;;;;;;9.02;7.93;;;;;;;24.39;60.95;98136.06;5053152;28;20243;-68
2022/08/03 07:39:43;;;;;;;6.78;4.80;;;;;;;24.57;59.75;98132.41;5053203;28;20221;-68
2022/08/03 07:42:10;;;;;;;6.68;4.40;;;;;;;24.66;59.45;98130.59;5053335;28;20680;-68
2022/08/03 07:44:38;;;;;;;29.40;26.40;;;;;;;24.64;58.71;98133.59;5053683;28;20635;-69
2022/08/03 07:47:04;;;;;;;10.30;9.30;;;;;;;24.81;57.18;98132.94;5053435;28;20232;-68
2022/08/03 07:49:31;;;;;;;15.43;13.93;;;;;;;24.86;57.91;98140.97;5053497;28;20307;-69
2022/08/03 07:54:41;;;;;;;10.55;9.40;;;;;;;25.18;56.89;98140.72;5053754;28;20172;-68
2022/08/03 07:57:07;;;;;;;13.90;10.23;;;;;;;25.18;56.20;98129.84;5053635;28;20296;-69
2022/08/03 07:59:36;;;;;;;10.25;6.97;;;;;;;25.34;56.71;98137.34;5053473;28;20311;-68
2022/08/03 08:02:03;;;;;;;5.28;3.08;;;;;;;25.55;55.67;98134.91;5040493;28;20604;-68
2022/08/03 08:04:29;;;;;;;25.17;22.83;;;;;;;25.53;55.06;98135.22;5033256;28;20245;-69
2022/08/03 08:06:56;;;;;;;4.00;3.13;;;;;;;25.37;55.57;98134.00;5033420;28;20221;-70
2022/08/03 08:09:22;;;;;;;5.07;4.38;;;;;;;25.69;55.30;98122.75;5033126;28;20228;-70
2022/08/03 08:11:49;;;;;;;12.52;10.48;;;;;;;25.76;54.77;98134.03;5033149;28;20292;-70
2022/08/03 08:14:15;;;;;;;13.90;12.45;;;;;;;25.68;54.80;98128.53;5032995;28;20758;-69
2022/08/03 08:16:42;;;;;;;29.10;26.27;;;;;;;25.68;54.66;98125.81;5033416;28;20202;-69
2022/08/03 08:19:08;;;;;;;19.02;17.05;;;;;;;25.73;53.94;98125.69;5033207;28;20230;-69
2022/08/03 08:21:35;;;;;;;6.45;5.25;;;;;;;25.88;53.11;98130.69;5033469;28;20292;-69
2022/08/03 08:24:02;;;;;;;19.15;16.50;;;;;;;25.86;53.72;98130.19;5032818;28;20687;-69
2022/08/03 08:26:28;;;;;;;4.40;2.60;;;;;;;25.93;53.11;98130.59;5032801;28;20221;-69
2022/08/03 08:28:55;;;;;;;3.33;3.00;;;;;;;26.28;52.14;98132.28;5032525;28;20234;-69
2022/08/03 08:31:21;;;;;;;14.82;13.05;;;;;;;26.40;51.93;98130.53;5032937;28;20708;-70
2022/08/03 08:33:47;;;;;;;4.22;2.97;;;;;;;26.55;52.23;98126.53;5033221;28;20240;-69
2022/08/03 08:36:14;;;;;;;2.88;2.60;;;;;;;26.73;49.72;98125.47;5032809;28;20201;-69
2022/08/03 08:38:41;;;;;;;3.53;2.65;;;;;;;26.69;50.29;98124.50;5032894;28;20258;-69
2022/08/03 08:41:09;;;;;;;5.60;2.72;;;;;;;26.84;49.54;98124.81;5032817;28;20213;-69
2022/08/03 08:43:35;;;;;;;4.45;3.03;;;;;;;26.95;49.24;98119.81;5033024;28;20315;-70
2022/08/03 08:46:03;;;;;;;7.72;2.83;;;;;;;26.98;48.69;98115.66;5033045;28;20226;-69
2022/08/03 08:48:30;;;;;;;6.18;4.95;;;;;;;26.77;50.13;98113.56;5032797;28;20620;-69
2022/08/03 08:50:57;;;;;;;4.03;2.75;;;;;;;27.09;48.61;98112.25;5015536;28;20296;-69
2022/08/03 08:53:31;;;;;;;2.78;2.40;;;;;;;27.34;46.32;98114.16;5033093;28;20286;-69
2022/08/03 08:56:00;;;;;;;4.05;2.20;;;;;;;27.27;46.01;98108.41;5033104;28;20307;-69
2022/08/03 08:58:30;;;;;;;3.88;2.08;;;;;;;27.37;45.16;98115.41;5032992;28;20288;-69
2022/08/03 09:00:56;;;;;;;2.97;2.78;;;;;;;27.48;45.38;98113.97;5033103;28;20212;-69
2022/08/03 09:03:23;;;;;;;3.08;1.88;;;;;;;27.72;44.82;98123.16;5032690;28;20292;-70
2022/08/03 09:05:50;;;;;;;4.90;2.10;;;;;;;27.83;45.06;98121.72;5032990;28;20222;-70
2022/08/03 09:08:17;;;;;;;3.03;2.05;;;;;;;27.68;44.16;98124.16;5032946;28;20728;-70
2022/08/03 09:10:44;;;;;;;1.80;1.70;;;;;;;27.93;44.01;98115.88;5032846;28;20294;-69
2022/08/03 09:13:11;;;;;;;2.70;2.40;;;;;;;28.06;43.80;98116.75;5032576;28;20206;-70
2022/08/03 09:15:38;;;;;;;3.65;2.20;;;;;;;28.15;42.91;98121.06;5032874;28;20327;-69
2022/08/03 09:18:05;;;;;;;4.57;1.80;;;;;;;27.79;43.46;98109.81;5032815;28;20202;-68
2022/08/03 09:20:35;;;;;;;2.70;1.80;;;;;;;28.09;43.29;98116.91;5032578;28;20316;-69
2022/08/03 09:23:07;;;;;;;3.50;2.00;;;;;;;28.07;43.53;98104.72;5032595;28;20641;-69
2022/08/03 09:25:39;;;;;;;2.75;2.05;;;;;;;28.31;41.34;98108.41;5032789;28;20193;-69
2022/08/03 09:28:14;;;;;;;2.53;1.65;;;;;;;28.68;41.32;98112.19;5032661;28;20292;-69
2022/08/03 09:30:43;;;;;;;4.07;1.92;;;;;;;28.61;40.44;98107.25;5032399;28;20237;-70
2022/08/03 09:33:15;;;;;;;2.55;1.70;;;;;;;28.34;40.36;98104.22;5032723;28;20228;-71
2022/08/03 09:35:48;;;;;;;2.13;1.55;;;;;;;28.76;39.42;98100.38;5032568;28;20222;-71
2022/08/03 09:38:22;;;;;;;1.52;1.42;;;;;;;29.03;36.73;98099.84;5034196;28;20202;-71
2022/08/03 09:40:49;;;;;;;1.60;1.50;;;;;;;29.32;37.68;98105.16;5035488;28;20243;-71
2022/08/03 09:43:16;;;;;;;1.77;1.52;;;;;;;29.32;36.87;98105.97;5035877;28;20209;-71
2022/08/03 09:45:43;;;;;;;2.08;1.88;;;;;;;29.51;37.87;98098.00;5035795;28;20218;-70
2022/08/03 09:48:30;;;;;;;1.65;1.45;;;;;;;29.75;35.10;98114.50;5035944;28;20279;-70
2022/08/03 09:50:59;;;;;;;2.67;1.70;;;;;;;29.67;35.99;98109.91;5035741;28;20218;-71
2022/08/03 09:53:26;;;;;;;1.67;1.58;;;;;;;29.67;35.31;98100.91;5035911;28;20209;-71
2022/08/03 09:56:00;;;;;;;1.40;1.30;;;;;;;30.06;32.82;98108.44;5035800;28;20292;-71
2022/08/03 09:58:29;;;;;;;2.08;1.60;;;;;;;30.09;31.91;98099.53;5035493;28;20292;-71
2022/08/03 10:00:55;;;;;;;1.20;1.10;;;;;;;29.94;32.78;98101.03;5036049;28;20297;-71
2022/08/03 10:03:23;;;;;;;1.70;1.60;;;;;;;30.20;33.61;98096.00;5035695;28;20260;-71
2022/08/03 10:05:49;;;;;;;1.70;1.45;;;;;;;30.33;34.18;98100.34;5035758;28;20229;-71
2022/08/03 10:08:18;;;;;;;2.65;1.70;;;;;;;30.31;33.87;98101.84;5035701;28;20206;-71
2022/08/03 10:10:46;;;;;;;1.50;1.40;;;;;;;30.27;33.24;98095.44;5035578;28;20205;-71
2022/08/03 10:13:18;;;;;;;1.55;1.45;;;;;;;30.49;33.21;98093.00;5035226;28;20305;-71
2022/08/03 10:15:46;;;;;;;1.35;1.25;;;;;;;30.42;33.90;98090.03;5035389;28;20206;-71
2022/08/03 10:18:13;;;;;;;3.03;1.60;;;;;;;30.40;33.69;98092.34;5035103;28;20216;-71
2022/08/03 10:20:48;;;;;;;1.60;1.50;;;;;;;30.30;34.06;98090.03;5034960;28;20229;-70
2022/08/03 10:23:17;;;;;;;4.93;1.73;;;;;;;30.70;33.43;98081.88;5035347;28;20212;-70
2022/08/03 10:25:46;;;;;;;1.55;1.40;;;;;;;30.94;33.08;98077.09;5017784;28;20301;-71
2022/08/03 10:28:16;;;;;;;2.50;1.40;;;;;;;30.91;32.64;98076.97;5035195;28;20209;-71
2022/08/03 10:30:48;;;;;;;1.80;1.70;;;;;;;30.98;33.38;98077.97;5035082;28;20209;-71
2022/08/03 10:33:22;;;;;;;1.75;1.50;;;;;;;30.68;33.20;98076.72;5035629;28;20285;-71
2022/08/03 10:35:54;;;;;;;1.70;1.60;;;;;;;30.64;33.18;98081.28;5035203;28;20281;-71
2022/08/03 10:38:26;;;;;;;1.90;1.80;;;;;;;30.54;34.08;98068.06;5017160;28;20190;-71
2022/08/03 10:40:54;;;;;;;1.73;1.63;;;;;;;30.67;34.45;98066.91;5017363;28;20201;-71
2022/08/03 10:43:26;;;;;;;2.90;1.70;;;;;;;31.17;32.57;98058.88;5035048;28;20202;-71
2022/08/03 10:45:52;;;;;;;2.00;1.70;;;;;;;31.09;32.25;98057.09;5034691;28;20190;-71
2022/08/03 10:48:19;;;;;;;1.60;1.50;;;;;;;31.24;32.63;98052.81;5034159;28;20716;-71
2022/08/03 10:50:49;;;;;;;1.85;1.70;;;;;;;31.23;32.20;98052.00;5034860;28;20405;-71
2022/08/03 10:53:15;;;;;;;3.92;2.00;;;;;;;31.41;32.36;98049.69;5034691;28;20206;-71
2022/08/03 10:58:52;;;;;;;1.60;1.50;;;;;;;31.33;31.75;98050.69;5034290;28;20548;-71
2022/08/03 11:01:39;;;;;;;2.45;1.83;;;;;;;31.48;31.54;98042.44;5034528;28;20221;-72
2022/08/03 11:04:15;;;;;;;2.95;1.85;;;;;;;32.00;31.80;98050.38;5034296;28;20216;-71
2022/08/03 11:06:42;;;;;;;2.08;1.83;;;;;;;31.77;31.79;98046.72;5034571;28;20213;-71
2022/08/03 11:09:11;;;;;;;3.35;1.70;;;;;;;31.37;32.28;98046.88;5034252;28;20279;-71
2022/08/03 11:11:39;;;;;;;1.85;1.55;;;;;;;31.52;31.77;98048.81;5034041;28;20210;-71
2022/08/03 11:14:11;;;;;;;1.63;1.52;;;;;;;31.72;31.77;98044.19;5034059;28;20206;-71
2022/08/03 11:16:37;;;;;;;1.38;1.33;;;;;;;31.28;32.79;98042.69;5034485;28;20187;-71
2022/08/03 11:19:09;;;;;;;2.00;1.42;;;;;;;30.78;33.29;98043.28;5033975;28;20277;-71
2022/08/03 11:21:48;;;;;;;1.67;1.58;;;;;;;31.31;32.43;98040.06;5034190;28;20273;-71
2022/08/03 11:24:37;;;;;;;1.95;1.60;;;;;;;31.36;32.09;98034.28;5033799;28;20209;-72
2022/08/03 11:27:19;;;;;;;2.10;2.00;;;;;;;31.63;32.18;98029.84;5033831;28;20261;-70
2022/08/03 11:30:13;;;;;;;1.80;1.70;;;;;;;31.41;32.03;98031.28;5033262;28;20234;-71
2022/08/03 11:32:40;;;;;;;2.05;1.80;;;;;;;31.53;31.88;98031.19;5034144;28;20194;-71
2022/08/03 11:35:12;;;;;;;2.15;1.95;;;;;;;31.48;31.53;98027.91;5034095;28;20213;-71
2022/08/03 11:37:58;;;;;;;1.70;1.60;;;;;;;31.67;31.89;98027.97;5033756;28;20640;-71
2022/08/03 11:40:35;;;;;;;2.15;1.90;;;;;;;31.60;31.57;98025.84;5026407;28;20244;-71
2022/08/03 11:43:02;;;;;;;1.80;1.70;;;;;;;31.49;32.31;98024.00;5033651;28;20308;-71
2022/08/03 11:45:30;;;;;;;4.22;2.00;;;;;;;31.53;31.59;98027.63;5033581;28;20628;-71
2022/08/03 11:47:57;;;;;;;1.85;1.75;;;;;;;31.16;32.25;98027.06;5016141;28;20249;-71
2022/08/03 11:50:24;;;;;;;2.05;1.70;;;;;;;31.25;32.33;98030.47;5033460;28;20233;-71